Terminal Aerodrome Forecast
Issued by NWS

Home | Current Version | Previous Version | Text Only | Print | Product List | Glossary Off
Versions: 1 2 3 4 5 6 7 8 9 10 11 12 13 14 15 16

896
FTUS43 KMPX 281736
TAFAXN
TAF
KAXN 281736Z 2818/2918 06010KT P6SM VCSH FEW030 OVC060
     FM290200 07008KT P6SM SCT050 OVC100=

USA.gov is the U.S. government's official web portal to all federal, state and local government web resources and services.